Huvudsida
METAR-TAF:

METAR-TAF

Flygplatser :

Militär flygplats Cameri

Novara, Italien

latitud: 45-31N, longitud: 008-40E, höjd: 178 m

METAR: saknas

Tid: 23:04 (22:04 UTC)

Väderprognos

Denna rapport gjordes för 29 timmar och 4 minuter sedan, klockan 17:00 UTC
Prognos gäller från 13 kl. 18 UTC till 14 kl. 03 UTC
Vind 5 kt från syd/sydväst
Sikt 10 km eller mer
Spridda moln på en höjd av 2000 ft

TAF: LIMN 131700Z 1318/1403 21005KT 9999 SCT020

Aktuella väderrapporter och prognoser från 4000 flygplatser (METAR- och TAF-rapporter).

De tillgängliga stationerna syns som gula och röda prickar på kartan.

För musen över prickarna för att se namnen på stationerna.

Klicka sedan för att få väderrapporter och prognoser.

För att ändra kartan: Klicka på de gröna knapparna med ett svart kors på för att zooma in; den gröna knappen med ett streck på för att zooma ut; eller på de gröna pilarna för angränsande kartor.


METAR-TAF: